createdAt,value
2019-05-01T00:00:15.798Z,11.70
2019-05-01T00:01:14.545Z,11.70
2019-05-01T00:02:20.037Z,11.70
2019-05-01T00:03:16.699Z,11.70
2019-05-01T00:04:21.686Z,11.70
2019-05-01T00:05:18.008Z,11.70
2019-05-01T00:05:57.923Z,11.70
2019-05-01T00:06:40.083Z,11.70
2019-05-01T00:07:32.082Z,11.70
2019-05-01T00:08:11.087Z,11.70
2019-05-01T00:08:48.575Z,11.70
2019-05-01T00:09:27.299Z,11.70
2019-05-01T00:10:05.376Z,11.70
2019-05-01T00:10:44.234Z,11.70
2019-05-01T00:11:21.163Z,11.80
2019-05-01T00:12:06.489Z,11.80
2019-05-01T00:12:43.558Z,11.80
2019-05-01T00:13:21.167Z,11.80
2019-05-01T00:13:58.463Z,11.80
2019-05-01T00:14:36.100Z,11.80
2019-05-01T00:15:14.250Z,11.80
2019-05-01T00:15:51.837Z,11.80
2019-05-01T00:16:29.578Z,11.80
2019-05-01T00:17:07.815Z,11.80
2019-05-01T00:17:45.351Z,11.80
2019-05-01T00:18:23.353Z,11.80
2019-05-01T00:19:02.009Z,11.80
2019-05-01T00:19:39.198Z,11.80
2019-05-01T00:20:16.915Z,11.90
2019-05-01T00:20:54.464Z,11.90
2019-05-01T00:21:32.277Z,11.90
2019-05-01T00:22:09.727Z,11.90
2019-05-01T00:22:47.149Z,11.90
2019-05-01T00:23:25.113Z,11.90
2019-05-01T00:24:02.292Z,11.90
2019-05-01T00:24:40.016Z,11.90
2019-05-01T00:25:19.994Z,11.90
2019-05-01T00:25:57.158Z,11.90
2019-05-01T00:26:34.969Z,11.90
2019-05-01T00:27:16.241Z,11.90
2019-05-01T00:27:53.801Z,11.90
2019-05-01T00:28:31.216Z,11.90
2019-05-01T00:29:08.985Z,11.90
2019-05-01T00:29:47.813Z,11.90
2019-05-01T00:30:30.171Z,11.90
2019-05-01T00:31:05.898Z,11.90
2019-05-01T00:31:43.000Z,11.90
2019-05-01T00:32:22.763Z,11.90
2019-05-01T00:32:59.642Z,11.90
2019-05-01T00:33:36.941Z,11.90
2019-05-01T00:34:14.392Z,11.90
2019-05-01T00:34:53.495Z,11.90
2019-05-01T00:35:31.128Z,11.90
2019-05-01T00:36:07.927Z,11.90
2019-05-01T00:36:46.754Z,11.90
2019-05-01T00:37:24.368Z,11.90
2019-05-01T00:38:05.531Z,12.00
2019-05-01T00:38:43.317Z,12.00
2019-05-01T00:39:21.838Z,12.00
2019-05-01T00:39:59.343Z,12.00
2019-05-01T00:40:37.027Z,12.00
2019-05-01T00:41:14.798Z,11.90
2019-05-01T00:41:52.350Z,11.90
2019-05-01T00:42:29.769Z,12.00
2019-05-01T00:43:07.105Z,11.90
2019-05-01T00:43:44.570Z,11.90
2019-05-01T00:44:22.377Z,11.90
2019-05-01T00:45:00.083Z,12.00
2019-05-01T00:45:37.937Z,11.90
2019-05-01T00:46:15.350Z,11.90
2019-05-01T00:46:52.814Z,11.90
2019-05-01T00:47:30.323Z,11.90
2019-05-01T00:48:07.775Z,11.90
2019-05-01T00:48:44.948Z,11.90
2019-05-01T00:49:22.688Z,11.90
2019-05-01T00:50:00.188Z,11.90
2019-05-01T00:50:36.976Z,11.90
2019-05-01T00:51:14.668Z,11.90
2019-05-01T00:51:51.950Z,11.90
2019-05-01T00:52:29.431Z,11.90
2019-05-01T00:53:07.086Z,12.00
2019-05-01T00:53:48.026Z,12.00
2019-05-01T00:54:25.549Z,12.00
2019-05-01T00:55:20.142Z,12.00
2019-05-01T00:56:21.016Z,12.00
2019-05-01T00:57:35.554Z,12.00
2019-05-01T00:58:19.906Z,12.00
2019-05-01T00:59:05.164Z,12.00
2019-05-01T01:00:16.434Z,11.90
2019-05-01T01:01:15.526Z,11.90
2019-05-01T01:02:15.816Z,11.90
2019-05-01T01:02:55.050Z,11.90
2019-05-01T01:03:38.926Z,11.90
2019-05-01T01:04:17.514Z,11.90
2019-05-01T01:04:55.482Z,11.90
2019-05-01T01:05:33.518Z,11.90
2019-05-01T01:06:10.740Z,11.90
2019-05-01T01:06:49.552Z,11.90
2019-05-01T01:07:32.970Z,11.90
2019-05-01T01:08:09.830Z,11.90
2019-05-01T01:08:46.802Z,11.90
2019-05-01T01:09:24.440Z,11.90
2019-05-01T01:10:01.244Z,11.90
2019-05-01T01:10:39.054Z,11.90
2019-05-01T01:11:16.535Z,11.90
2019-05-01T01:11:53.692Z,11.90
2019-05-01T01:12:31.391Z,11.90
2019-05-01T01:13:08.639Z,12.00
2019-05-01T01:13:47.032Z,12.00
2019-05-01T01:14:24.856Z,12.00
2019-05-01T01:15:02.422Z,12.00
2019-05-01T01:15:40.012Z,12.00
2019-05-01T01:16:16.850Z,12.00
2019-05-01T01:16:54.752Z,12.00
2019-05-01T01:17:32.236Z,12.00
2019-05-01T01:18:09.729Z,12.00
2019-05-01T01:18:47.387Z,12.00
2019-05-01T01:19:24.946Z,12.00
2019-05-01T01:20:02.672Z,12.00
2019-05-01T01:20:40.025Z,12.00
2019-05-01T01:21:17.256Z,12.00
2019-05-01T01:21:55.008Z,12.00
2019-05-01T01:22:32.552Z,12.00
2019-05-01T01:23:10.180Z,12.00
2019-05-01T01:23:47.748Z,12.00
2019-05-01T01:24:25.158Z,11.90
2019-05-01T01:25:03.995Z,11.90
2019-05-01T01:25:41.515Z,11.90
2019-05-01T01:26:18.719Z,11.90
2019-05-01T01:26:56.116Z,11.90
2019-05-01T01:27:36.390Z,11.90
2019-05-01T01:28:14.190Z,11.90
2019-05-01T01:28:53.086Z,11.90
2019-05-01T01:29:30.943Z,11.90
2019-05-01T01:30:09.331Z,11.90
2019-05-01T01:30:56.109Z,11.90
2019-05-01T01:31:26.416Z,11.90
2019-05-01T01:32:04.966Z,11.90
2019-05-01T01:32:42.430Z,11.90
2019-05-01T01:33:19.976Z,11.90
2019-05-01T01:33:57.468Z,11.90
2019-05-01T01:34:35.194Z,11.90
2019-05-01T01:35:12.571Z,11.90
2019-05-01T01:35:51.498Z,11.90
2019-05-01T01:36:28.656Z,11.90
2019-05-01T01:37:05.970Z,11.90
2019-05-01T01:37:43.248Z,11.90
2019-05-01T01:38:20.942Z,11.90
2019-05-01T01:38:58.548Z,11.90
2019-05-01T01:39:36.130Z,11.90
2019-05-01T01:40:16.373Z,11.90
2019-05-01T01:40:54.318Z,11.90
2019-05-01T01:41:35.124Z,11.90
2019-05-01T01:42:13.292Z,11.90
2019-05-01T01:42:53.181Z,11.90
2019-05-01T01:43:52.365Z,11.90
2019-05-01T01:44:51.144Z,11.90
2019-05-01T01:45:39.598Z,11.90
2019-05-01T01:46:18.178Z,11.90
2019-05-01T01:46:57.208Z,11.90
2019-05-01T01:47:37.233Z,11.90
2019-05-01T01:48:16.462Z,11.90
2019-05-01T01:48:54.982Z,11.80
2019-05-01T01:49:38.609Z,11.90
2019-05-01T01:50:15.878Z,11.90
2019-05-01T01:50:53.538Z,11.90
2019-05-01T01:51:31.333Z,11.80
2019-05-01T01:52:09.236Z,11.80
2019-05-01T01:52:46.320Z,11.80
2019-05-01T01:53:24.214Z,11.80
2019-05-01T01:54:01.852Z,11.80
2019-05-01T01:54:39.378Z,11.80
2019-05-01T01:55:16.560Z,11.80
2019-05-01T01:55:55.261Z,11.80
2019-05-01T01:56:32.580Z,11.80
2019-05-01T01:57:09.853Z,11.80
2019-05-01T01:57:46.680Z,11.80
2019-05-01T01:58:26.068Z,11.80
2019-05-01T01:59:03.323Z,11.80
2019-05-01T01:59:41.250Z,11.80
2019-05-01T02:00:20.121Z,11.80
2019-05-01T02:01:10.608Z,11.80
2019-05-01T02:02:03.754Z,11.80
2019-05-01T02:02:45.455Z,11.80
2019-05-01T02:03:22.798Z,11.80
2019-05-01T02:04:03.312Z,11.80
2019-05-01T02:04:51.290Z,11.80
2019-05-01T02:05:39.800Z,11.80
2019-05-01T02:06:16.880Z,11.90
2019-05-01T02:06:54.746Z,11.90
2019-05-01T02:07:32.046Z,11.80
2019-05-01T02:08:09.583Z,11.80
2019-05-01T02:08:56.252Z,11.90
2019-05-01T02:09:25.670Z,11.90
2019-05-01T02:10:04.165Z,11.90
2019-05-01T02:10:42.825Z,11.90
2019-05-01T02:11:21.118Z,11.90
2019-05-01T02:11:58.490Z,11.90
2019-05-01T02:12:38.015Z,11.90
2019-05-01T02:13:15.696Z,11.90
2019-05-01T02:13:56.552Z,11.90
2019-05-01T02:14:34.242Z,11.90
2019-05-01T02:15:13.948Z,11.90
2019-05-01T02:15:51.410Z,11.90
2019-05-01T02:16:28.623Z,11.90
2019-05-01T02:17:05.899Z,11.90
2019-05-01T02:17:42.800Z,11.90
2019-05-01T02:18:20.622Z,11.90
2019-05-01T02:18:58.438Z,11.90
2019-05-01T02:19:36.216Z,11.90
2019-05-01T02:20:16.128Z,11.90
2019-05-01T02:20:53.445Z,11.90
2019-05-01T02:21:31.112Z,11.90
2019-05-01T02:22:07.980Z,11.80
2019-05-01T02:22:45.376Z,11.80
2019-05-01T02:23:22.840Z,11.80
2019-05-01T02:24:00.324Z,11.80
2019-05-01T02:24:38.230Z,11.80
2019-05-01T02:25:16.320Z,11.80
2019-05-01T02:25:53.696Z,11.80
2019-05-01T02:26:34.838Z,11.80
2019-05-01T02:27:17.534Z,11.80
2019-05-01T02:28:32.797Z,11.80
2019-05-01T02:29:25.180Z,11.80
2019-05-01T02:30:04.344Z,11.70
2019-05-01T02:30:52.002Z,11.70
2019-05-01T02:31:35.181Z,11.70
2019-05-01T02:32:13.911Z,11.70
2019-05-01T02:32:52.722Z,11.70
2019-05-01T02:33:30.280Z,11.70
2019-05-01T02:34:08.806Z,11.60
2019-05-01T02:34:48.032Z,11.60
2019-05-01T02:35:30.176Z,11.60
2019-05-01T02:36:06.509Z,11.60
2019-05-01T02:36:45.292Z,11.60
2019-05-01T02:37:23.550Z,11.60
2019-05-01T02:38:02.452Z,11.60
2019-05-01T02:38:41.904Z,11.60
2019-05-01T02:39:22.077Z,11.60
2019-05-01T02:40:02.146Z,11.60
2019-05-01T02:40:56.268Z,11.50
2019-05-01T02:41:41.440Z,11.50
2019-05-01T02:42:23.582Z,11.50
2019-05-01T02:43:03.617Z,11.50
2019-05-01T02:43:45.199Z,11.50
2019-05-01T02:44:30.884Z,11.50
2019-05-01T02:45:09.130Z,11.50
2019-05-01T02:45:48.860Z,11.50
2019-05-01T02:46:29.540Z,11.50
2019-05-01T02:47:10.099Z,11.50
2019-05-01T02:47:48.643Z,11.50
2019-05-01T02:48:30.380Z,11.50
2019-05-01T02:49:12.578Z,11.40
2019-05-01T02:49:53.344Z,11.40
2019-05-01T02:50:33.564Z,11.40
2019-05-01T02:51:12.904Z,11.40
2019-05-01T02:51:51.281Z,11.40
2019-05-01T02:52:32.250Z,11.40
2019-05-01T02:53:10.347Z,11.40
2019-05-01T02:53:49.077Z,11.40
2019-05-01T02:54:28.341Z,11.40
2019-05-01T02:55:12.507Z,11.40
2019-05-01T02:56:09.853Z,11.40
2019-05-01T02:57:05.557Z,11.40
2019-05-01T02:57:45.269Z,11.30
2019-05-01T02:58:22.450Z,11.30
2019-05-01T02:59:00.840Z,11.30
2019-05-01T02:59:41.619Z,11.30
2019-05-01T03:00:18.857Z,11.30
2019-05-01T03:00:56.696Z,11.30
2019-05-01T03:01:46.699Z,11.30
2019-05-01T03:02:15.401Z,11.30
2019-05-01T03:02:52.961Z,11.30
2019-05-01T03:03:30.708Z,11.30
2019-05-01T03:04:09.370Z,11.30
2019-05-01T03:04:47.941Z,11.20
2019-05-01T03:05:25.609Z,11.20
2019-05-01T03:06:03.319Z,11.20
2019-05-01T03:06:41.593Z,11.20
2019-05-01T03:07:21.393Z,11.20
2019-05-01T03:08:00.641Z,11.20
2019-05-01T03:08:38.913Z,11.20
2019-05-01T03:09:20.001Z,11.20
2019-05-01T03:10:02.637Z,11.20
2019-05-01T03:10:40.157Z,11.20
2019-05-01T03:11:17.006Z,11.20
2019-05-01T03:11:56.182Z,11.20
2019-05-01T03:12:36.276Z,11.20
2019-05-01T03:13:13.553Z,11.20
2019-05-01T03:13:52.483Z,11.20
2019-05-01T03:14:32.503Z,11.20
2019-05-01T03:15:12.056Z,11.20
2019-05-01T03:15:50.581Z,11.20
2019-05-01T03:16:28.237Z,11.20
2019-05-01T03:17:09.401Z,11.20
2019-05-01T03:17:54.185Z,11.20
2019-05-01T03:18:35.706Z,11.20
2019-05-01T03:19:20.031Z,11.20
2019-05-01T03:20:05.818Z,11.20
2019-05-01T03:21:18.420Z,11.20
2019-05-01T03:22:01.113Z,11.20
2019-05-01T03:22:49.879Z,11.20
2019-05-01T03:23:30.524Z,11.20
2019-05-01T03:24:17.309Z,11.20
2019-05-01T03:24:55.102Z,11.20
2019-05-01T03:25:32.444Z,11.20
2019-05-01T03:26:12.354Z,11.20
2019-05-01T03:26:50.545Z,11.20
2019-05-01T03:27:31.709Z,11.20
2019-05-01T03:28:09.598Z,11.20
2019-05-01T03:28:47.227Z,11.20
2019-05-01T03:29:24.993Z,11.20
2019-05-01T03:30:05.777Z,11.20
2019-05-01T03:30:43.225Z,11.20
2019-05-01T03:31:20.873Z,11.20
2019-05-01T03:32:15.870Z,11.20
2019-05-01T03:32:38.227Z,11.20
2019-05-01T03:33:15.960Z,11.20
2019-05-01T03:33:53.318Z,11.20
2019-05-01T03:34:32.150Z,11.10
2019-05-01T03:35:09.424Z,11.20
2019-05-01T03:35:50.264Z,11.10
2019-05-01T03:36:28.300Z,11.20
2019-05-01T03:37:07.005Z,11.20
2019-05-01T03:37:44.431Z,11.10
2019-05-01T03:38:22.015Z,11.20
2019-05-01T03:38:59.854Z,11.10
2019-05-01T03:39:37.739Z,11.20
2019-05-01T03:40:18.362Z,11.20
2019-05-01T03:40:56.094Z,11.20
2019-05-01T03:41:33.349Z,11.20
2019-05-01T03:42:13.541Z,11.20
2019-05-01T03:42:50.196Z,11.20
2019-05-01T03:43:28.190Z,11.20
2019-05-01T03:44:06.444Z,11.20
2019-05-01T03:44:44.866Z,11.20
2019-05-01T03:45:23.020Z,11.20
2019-05-01T03:46:00.673Z,11.20
2019-05-01T03:46:38.048Z,11.20
2019-05-01T03:47:16.198Z,11.20
2019-05-01T03:47:54.145Z,11.20
2019-05-01T03:48:34.530Z,11.20
2019-05-01T03:49:13.834Z,11.20
2019-05-01T03:49:54.467Z,11.20
2019-05-01T03:50:31.968Z,11.20
2019-05-01T03:51:10.059Z,11.20
2019-05-01T03:51:47.749Z,11.20
2019-05-01T03:52:25.374Z,11.20
2019-05-01T03:53:03.304Z,11.20
2019-05-01T03:53:41.015Z,11.20
2019-05-01T03:54:18.621Z,11.20
2019-05-01T03:54:55.594Z,11.20
2019-05-01T03:55:33.791Z,11.20
2019-05-01T03:56:11.658Z,11.20
2019-05-01T03:56:49.528Z,11.20
2019-05-01T03:57:26.753Z,11.20
2019-05-01T03:58:04.429Z,11.20
2019-05-01T03:58:43.476Z,11.20
2019-05-01T03:59:21.382Z,11.20
2019-05-01T03:59:58.709Z,11.30
2019-05-01T04:00:45.833Z,11.30
2019-05-01T04:01:34.688Z,11.30
2019-05-01T04:02:33.477Z,11.30
2019-05-01T04:03:34.591Z,11.30
2019-05-01T04:04:16.436Z,11.30
2019-05-01T04:04:53.674Z,11.30
2019-05-01T04:05:31.022Z,11.30
2019-05-01T04:06:08.711Z,11.30
2019-05-01T04:06:46.089Z,11.30
2019-05-01T04:07:24.424Z,11.30
2019-05-01T04:08:02.446Z,11.30
2019-05-01T04:08:40.905Z,11.30
2019-05-01T04:09:18.504Z,11.30
2019-05-01T04:09:56.003Z,11.30
2019-05-01T04:10:37.133Z,11.30
2019-05-01T04:11:15.122Z,11.30
2019-05-01T04:11:52.851Z,11.20
2019-05-01T04:12:30.802Z,11.20
2019-05-01T04:13:11.874Z,11.20
2019-05-01T04:13:49.435Z,11.20
2019-05-01T04:14:26.782Z,11.20
2019-05-01T04:15:06.413Z,11.20
2019-05-01T04:15:44.473Z,11.20
2019-05-01T04:16:23.417Z,11.20
2019-05-01T04:17:11.043Z,11.10
2019-05-01T04:17:52.899Z,11.10
2019-05-01T04:18:31.694Z,11.10
2019-05-01T04:19:10.952Z,11.10
2019-05-01T04:19:54.617Z,11.10
2019-05-01T04:20:31.839Z,11.10
2019-05-01T04:21:10.829Z,11.10
2019-05-01T04:21:55.397Z,11.10
2019-05-01T04:22:32.989Z,11.10
2019-05-01T04:23:10.872Z,11.10
2019-05-01T04:23:48.269Z,11.10
2019-05-01T04:24:27.026Z,11.10
2019-05-01T04:25:04.980Z,11.00
2019-05-01T04:25:42.768Z,11.00
2019-05-01T04:26:20.975Z,11.00
2019-05-01T04:26:58.911Z,11.00
2019-05-01T04:27:38.742Z,11.00
2019-05-01T04:28:38.978Z,11.00
2019-05-01T04:29:41.318Z,11.00
2019-05-01T04:30:30.901Z,11.00
2019-05-01T04:31:18.136Z,11.00
2019-05-01T04:32:01.505Z,11.00
2019-05-01T04:32:51.699Z,11.00
2019-05-01T04:33:20.946Z,11.00
2019-05-01T04:33:59.936Z,11.00
2019-05-01T04:34:55.613Z,11.00
2019-05-01T04:35:52.764Z,11.00
2019-05-01T04:36:34.401Z,11.00
2019-05-01T04:37:12.729Z,11.00
2019-05-01T04:37:51.211Z,11.00
2019-05-01T04:38:28.941Z,11.00
2019-05-01T04:39:09.985Z,11.00
2019-05-01T04:39:50.613Z,11.00
2019-05-01T04:40:28.528Z,11.00
2019-05-01T04:41:06.286Z,11.00
2019-05-01T04:41:44.117Z,11.00
2019-05-01T04:42:21.973Z,11.00
2019-05-01T04:43:01.657Z,11.00
2019-05-01T04:43:39.474Z,11.00
2019-05-01T04:44:17.974Z,11.00
2019-05-01T04:44:55.355Z,11.00
2019-05-01T04:45:33.583Z,11.00
2019-05-01T04:46:13.287Z,11.00
2019-05-01T04:46:53.422Z,11.00
2019-05-01T04:47:30.948Z,11.00
2019-05-01T04:48:09.250Z,10.90
2019-05-01T04:48:47.250Z,11.00
2019-05-01T04:49:29.696Z,10.90
2019-05-01T04:50:07.200Z,10.90
2019-05-01T04:50:46.735Z,11.00
2019-05-01T04:51:24.271Z,10.90
2019-05-01T04:52:02.771Z,10.90
2019-05-01T04:52:43.323Z,10.90
2019-05-01T04:53:21.544Z,10.90
2019-05-01T04:54:00.277Z,10.90
2019-05-01T04:54:37.810Z,10.90
2019-05-01T04:55:16.310Z,10.90
2019-05-01T04:55:54.333Z,10.90
2019-05-01T04:56:31.295Z,10.90
2019-05-01T04:57:08.633Z,10.90
2019-05-01T04:57:47.194Z,10.90
2019-05-01T04:58:25.055Z,10.90
2019-05-01T04:59:03.149Z,10.90
2019-05-01T04:59:40.271Z,10.90
2019-05-01T05:00:17.471Z,10.90
2019-05-01T05:00:54.841Z,10.90
2019-05-01T05:01:52.238Z,10.90
2019-05-01T05:02:38.675Z,10.80
2019-05-01T05:03:18.441Z,10.80
2019-05-01T05:03:56.039Z,10.80
2019-05-01T05:04:33.792Z,10.80
2019-05-01T05:05:12.489Z,10.80
2019-05-01T05:05:50.013Z,10.80
2019-05-01T05:06:27.831Z,10.80
2019-05-01T05:07:06.069Z,10.80
2019-05-01T05:07:44.137Z,10.80
2019-05-01T05:08:21.105Z,10.80
2019-05-01T05:08:59.147Z,10.80
2019-05-01T05:09:48.001Z,10.90
2019-05-01T05:10:25.489Z,10.90
2019-05-01T05:11:05.637Z,10.90
2019-05-01T05:11:51.078Z,10.90
2019-05-01T05:12:50.289Z,10.90
2019-05-01T05:13:35.169Z,10.90
2019-05-01T05:14:17.203Z,10.90
2019-05-01T05:14:57.916Z,10.90
2019-05-01T05:15:57.385Z,10.90
2019-05-01T05:16:52.529Z,10.80
2019-05-01T05:17:30.089Z,10.80
2019-05-01T05:18:08.170Z,10.80
2019-05-01T05:18:47.957Z,10.80
2019-05-01T05:19:25.574Z,10.80
2019-05-01T05:20:03.803Z,10.70
2019-05-01T05:20:41.613Z,10.70
2019-05-01T05:21:19.861Z,10.70
2019-05-01T05:21:57.755Z,10.70
2019-05-01T05:22:35.151Z,10.70
2019-05-01T05:23:12.255Z,10.70
2019-05-01T05:23:50.851Z,10.70
2019-05-01T05:24:31.067Z,10.70
2019-05-01T05:25:08.317Z,10.70
2019-05-01T05:25:48.052Z,10.70
2019-05-01T05:26:25.563Z,10.80
2019-05-01T05:27:04.295Z,10.80
2019-05-01T05:27:42.249Z,10.80
2019-05-01T05:28:22.642Z,10.80
2019-05-01T05:29:01.538Z,10.90
2019-05-01T05:29:39.405Z,10.80
2019-05-01T05:30:16.781Z,10.90
2019-05-01T05:30:55.110Z,10.90
2019-05-01T05:31:32.657Z,10.90
2019-05-01T05:32:12.123Z,10.90
2019-05-01T05:32:54.449Z,10.90
2019-05-01T05:33:34.583Z,10.90
2019-05-01T05:34:14.756Z,10.90
2019-05-01T05:34:54.714Z,10.90
2019-05-01T05:35:35.805Z,10.90
2019-05-01T05:36:14.509Z,10.90
2019-05-01T05:36:56.593Z,11.00
2019-05-01T05:37:41.045Z,11.00
2019-05-01T05:38:32.999Z,11.00
2019-05-01T05:39:17.030Z,11.00
2019-05-01T05:39:55.433Z,11.10
2019-05-01T05:40:34.457Z,11.10
2019-05-01T05:41:15.185Z,11.10
2019-05-01T05:41:55.015Z,11.10
2019-05-01T05:42:33.010Z,11.20
2019-05-01T05:43:11.124Z,11.20
2019-05-01T05:43:49.009Z,11.20
2019-05-01T05:44:26.850Z,11.20
2019-05-01T05:45:04.533Z,11.20
2019-05-01T05:45:43.267Z,11.30
2019-05-01T05:46:22.440Z,11.30
2019-05-01T05:47:00.737Z,11.30
2019-05-01T05:47:39.221Z,11.30
2019-05-01T05:48:18.488Z,11.30
2019-05-01T05:48:56.085Z,11.30
2019-05-01T05:49:34.518Z,11.20
2019-05-01T05:50:22.424Z,11.20
2019-05-01T05:51:16.975Z,11.20
2019-05-01T05:52:23.383Z,11.20
2019-05-01T05:53:06.071Z,11.20
2019-05-01T05:53:46.922Z,11.20
2019-05-01T05:54:43.346Z,11.20
2019-05-01T05:55:52.363Z,11.20
2019-05-01T05:56:37.818Z,11.30
2019-05-01T05:57:22.803Z,11.30
2019-05-01T05:58:10.842Z,11.30
2019-05-01T05:58:53.529Z,11.40
2019-05-01T05:59:35.154Z,11.40
2019-05-01T06:00:42.158Z,11.50
2019-05-01T06:01:38.088Z,11.50
2019-05-01T06:02:28.917Z,11.50
2019-05-01T06:03:31.219Z,11.50
2019-05-01T06:04:28.877Z,11.50
2019-05-01T06:05:29.092Z,11.60
2019-05-01T06:06:27.654Z,11.60
2019-05-01T06:07:30.061Z,11.60
2019-05-01T06:08:19.096Z,11.60
2019-05-01T06:09:00.026Z,11.70
2019-05-01T06:09:59.721Z,11.70
2019-05-01T06:10:45.278Z,11.60
2019-05-01T06:11:52.978Z,11.60
2019-05-01T06:13:08.373Z,11.60
2019-05-01T06:14:02.624Z,11.60
2019-05-01T06:15:06.493Z,11.60
2019-05-01T06:16:05.094Z,11.60
2019-05-01T06:17:10.825Z,11.50
2019-05-01T06:18:07.470Z,11.50
2019-05-01T06:18:52.344Z,11.50
2019-05-01T06:19:52.700Z,11.50
2019-05-01T06:20:42.748Z,11.50
2019-05-01T06:21:39.841Z,11.50
2019-05-01T06:22:26.033Z,11.50
2019-05-01T06:23:09.448Z,11.50
2019-05-01T06:24:06.705Z,11.50
2019-05-01T06:24:45.175Z,11.50
2019-05-01T06:25:27.706Z,11.50
2019-05-01T06:26:23.970Z,11.40
2019-05-01T06:27:02.710Z,11.40
2019-05-01T06:27:40.653Z,11.40
2019-05-01T06:28:19.779Z,11.50
2019-05-01T06:29:00.678Z,11.50
2019-05-01T06:29:37.596Z,11.40
2019-05-01T06:30:15.154Z,11.50
2019-05-01T06:30:54.916Z,11.40
2019-05-01T06:31:34.547Z,11.40
2019-05-01T06:32:12.461Z,11.40
2019-05-01T06:32:50.257Z,11.40
2019-05-01T06:33:30.228Z,11.40
2019-05-01T06:34:08.505Z,11.40
2019-05-01T06:34:50.386Z,11.40
2019-05-01T06:35:28.286Z,11.40
2019-05-01T06:36:08.723Z,11.40
2019-05-01T06:36:49.779Z,11.40
2019-05-01T06:37:27.188Z,11.50
2019-05-01T06:38:12.511Z,11.50
2019-05-01T06:38:50.744Z,11.50
2019-05-01T06:39:28.908Z,11.50
2019-05-01T06:40:07.174Z,11.60
2019-05-01T06:40:47.988Z,11.50
2019-05-01T06:41:28.677Z,11.50
2019-05-01T06:42:09.885Z,11.50
2019-05-01T06:42:50.053Z,11.50
2019-05-01T06:43:39.509Z,11.50
2019-05-01T06:44:22.996Z,11.50
2019-05-01T06:45:06.681Z,11.50
2019-05-01T06:45:51.638Z,11.50
2019-05-01T06:46:58.392Z,11.50
2019-05-01T06:47:47.732Z,11.50
2019-05-01T06:48:25.780Z,11.60
2019-05-01T06:49:14.612Z,11.70
2019-05-01T06:50:10.853Z,11.80
2019-05-01T06:50:54.539Z,11.90
2019-05-01T06:51:48.044Z,11.90
2019-05-01T06:52:29.300Z,11.90
2019-05-01T06:53:07.321Z,12.00
2019-05-01T06:53:45.653Z,12.00
2019-05-01T06:54:24.868Z,12.00
2019-05-01T06:55:02.528Z,12.00
2019-05-01T06:55:40.620Z,12.00
2019-05-01T06:56:21.066Z,11.90
2019-05-01T06:56:59.754Z,12.00
2019-05-01T06:57:43.655Z,12.00
2019-05-01T06:58:20.573Z,12.00
2019-05-01T06:58:58.764Z,12.00
2019-05-01T06:59:37.533Z,12.10
2019-05-01T07:00:17.045Z,12.10
2019-05-01T07:00:54.575Z,12.20
2019-05-01T07:01:32.106Z,12.20
2019-05-01T07:02:12.588Z,12.20
2019-05-01T07:02:52.448Z,12.30
2019-05-01T07:03:29.974Z,12.30
2019-05-01T07:04:08.348Z,12.40
2019-05-01T07:04:48.462Z,12.40
2019-05-01T07:05:27.316Z,12.40
2019-05-01T07:06:14.140Z,12.40
2019-05-01T07:06:44.274Z,12.30
2019-05-01T07:07:25.952Z,12.30
2019-05-01T07:08:02.996Z,12.20
2019-05-01T07:08:43.754Z,12.20
2019-05-01T07:09:28.044Z,12.20
2019-05-01T07:10:01.528Z,12.10
2019-05-01T07:10:44.279Z,12.00
2019-05-01T07:11:18.648Z,12.00
2019-05-01T07:11:57.079Z,11.90
2019-05-01T07:12:35.446Z,11.90
2019-05-01T07:13:12.862Z,11.90
2019-05-01T07:13:55.789Z,11.90
2019-05-01T07:14:35.203Z,11.90
2019-05-01T07:15:13.642Z,11.90
2019-05-01T07:15:58.771Z,11.90
2019-05-01T07:16:37.862Z,11.90
2019-05-01T07:17:13.615Z,11.90
2019-05-01T07:17:53.286Z,11.90
2019-05-01T07:18:30.952Z,11.90
2019-05-01T07:19:08.898Z,11.90
2019-05-01T07:20:11.865Z,12.00
2019-05-01T07:20:54.611Z,12.00
2019-05-01T07:21:38.366Z,12.00
2019-05-01T07:22:22.842Z,12.10
2019-05-01T07:23:01.556Z,12.00
2019-05-01T07:23:39.016Z,12.00
2019-05-01T07:24:16.851Z,12.10
2019-05-01T07:24:54.640Z,12.10
2019-05-01T07:25:34.843Z,12.20
2019-05-01T07:26:13.742Z,12.20
2019-05-01T07:26:51.468Z,12.20
2019-05-01T07:27:29.930Z,12.20
2019-05-01T07:28:08.868Z,12.20
2019-05-01T07:28:48.153Z,12.20
2019-05-01T07:29:27.570Z,12.20
2019-05-01T07:30:19.303Z,12.20
2019-05-01T07:31:05.149Z,12.20
2019-05-01T07:31:43.224Z,12.20
2019-05-01T07:32:21.140Z,12.20
2019-05-01T07:32:58.548Z,12.20
2019-05-01T07:33:42.014Z,12.20
2019-05-01T07:34:21.686Z,12.20
2019-05-01T07:35:01.897Z,12.20
2019-05-01T07:35:40.415Z,12.20
2019-05-01T07:36:18.350Z,12.20
2019-05-01T07:36:55.514Z,12.30
2019-05-01T07:37:32.570Z,12.30
2019-05-01T07:38:12.806Z,12.30
2019-05-01T07:38:50.760Z,12.30
2019-05-01T07:39:28.624Z,12.40
2019-05-01T07:40:08.542Z,12.40
2019-05-01T07:40:49.033Z,12.50
2019-05-01T07:41:27.436Z,12.50
2019-05-01T07:42:32.006Z,12.50
2019-05-01T07:43:28.122Z,12.50
2019-05-01T07:44:17.496Z,12.50
2019-05-01T07:44:55.574Z,12.50
2019-05-01T07:45:43.535Z,12.50
2019-05-01T07:46:48.929Z,12.50
2019-05-01T07:47:36.341Z,12.50
2019-05-01T07:48:16.950Z,12.50
2019-05-01T07:48:54.044Z,12.40
2019-05-01T07:49:54.744Z,12.40
2019-05-01T07:50:33.187Z,12.40
2019-05-01T07:51:11.246Z,12.40
2019-05-01T07:51:52.858Z,12.40
2019-05-01T07:52:31.486Z,12.40
2019-05-01T07:53:10.594Z,12.40
2019-05-01T07:53:49.054Z,12.40
2019-05-01T07:54:26.953Z,12.40
2019-05-01T07:55:04.976Z,12.40
2019-05-01T07:55:43.024Z,12.40
2019-05-01T07:56:22.807Z,12.40
2019-05-01T07:57:03.265Z,12.50
2019-05-01T07:57:41.208Z,12.50
2019-05-01T07:58:18.745Z,12.50
2019-05-01T07:59:00.278Z,12.40
2019-05-01T07:59:37.876Z,12.40
2019-05-01T08:00:36.888Z,12.40
2019-05-01T08:01:18.475Z,12.40
2019-05-01T08:02:16.216Z,12.40
2019-05-01T08:02:53.256Z,12.40
2019-05-01T08:03:30.556Z,12.40
2019-05-01T08:04:09.305Z,12.40
2019-05-01T08:04:47.146Z,12.40
2019-05-01T08:05:24.783Z,12.40
2019-05-01T08:06:02.341Z,12.50
2019-05-01T08:06:39.784Z,12.50
2019-05-01T08:07:32.317Z,12.50
2019-05-01T08:08:10.390Z,12.60
2019-05-01T08:08:48.042Z,12.60
2019-05-01T08:09:27.722Z,12.60
2019-05-01T08:10:09.304Z,12.70
2019-05-01T08:10:47.738Z,12.70
2019-05-01T08:11:25.258Z,12.80
2019-05-01T08:12:02.874Z,12.80
2019-05-01T08:12:41.634Z,12.80
2019-05-01T08:13:19.202Z,12.90
2019-05-01T08:14:07.086Z,12.90
2019-05-01T08:14:35.727Z,12.90
2019-05-01T08:15:13.383Z,12.90
2019-05-01T08:15:51.118Z,12.90
2019-05-01T08:16:28.706Z,12.90
2019-05-01T08:17:05.947Z,13.00
2019-05-01T08:17:44.183Z,13.00
2019-05-01T08:18:27.908Z,13.00
2019-05-01T08:19:12.892Z,13.00
2019-05-01T08:19:56.489Z,13.00
2019-05-01T08:20:38.450Z,13.10
2019-05-01T08:21:40.865Z,13.10
2019-05-01T08:22:21.518Z,13.10
2019-05-01T08:22:58.768Z,13.10
2019-05-01T08:23:36.451Z,13.10
2019-05-01T08:24:17.950Z,13.10
2019-05-01T08:24:58.603Z,13.10
2019-05-01T08:25:34.427Z,13.10
2019-05-01T08:26:11.948Z,13.20
2019-05-01T08:26:49.706Z,13.20
2019-05-01T08:27:51.151Z,13.30
2019-05-01T08:28:38.270Z,13.30
2019-05-01T08:29:43.832Z,13.40
2019-05-01T08:30:39.902Z,13.40
2019-05-01T08:31:35.913Z,13.40
2019-05-01T08:32:33.832Z,13.50
2019-05-01T08:33:30.533Z,13.50
2019-05-01T08:34:12.391Z,13.50
2019-05-01T08:34:49.861Z,13.60
2019-05-01T08:35:31.628Z,13.60
2019-05-01T08:36:11.774Z,13.70
2019-05-01T08:36:47.202Z,13.60
2019-05-01T08:37:27.106Z,13.70
2019-05-01T08:38:04.784Z,13.70
2019-05-01T08:38:42.466Z,13.70
2019-05-01T08:39:20.257Z,13.70
2019-05-01T08:39:57.920Z,13.80
2019-05-01T08:40:37.243Z,13.80
2019-05-01T08:41:14.792Z,13.80
2019-05-01T08:41:52.120Z,13.90
2019-05-01T08:42:29.312Z,13.90
2019-05-01T08:43:06.617Z,13.90
2019-05-01T08:43:43.956Z,13.90
2019-05-01T08:44:29.527Z,13.80
2019-05-01T08:45:40.596Z,13.80
2019-05-01T08:46:46.810Z,13.80
2019-05-01T08:47:29.038Z,13.70
2019-05-01T08:48:24.104Z,13.70
2019-05-01T08:49:11.404Z,13.80
2019-05-01T08:49:53.145Z,13.90
2019-05-01T08:50:30.442Z,13.90
2019-05-01T08:51:08.260Z,14.00
2019-05-01T08:51:45.700Z,14.00
2019-05-01T08:52:23.574Z,14.00